Airfield :
LOGIN :

Register | Disclaimer

   EN    FR    IT 

 










Legend :    VFR   Marginal VFR   IFR   Intensive IFR   Very Intensive IFR
Visi :
Ceiling :
>= 8 km
>= 3000ft
5 to 8 km
1000 to 3000 ft
1500m to 5 km
500 to 1000 ft
800 to 1500m
200 to 500 ft
< 800m
< 200 ft
Symbols :   Thunderstorms  Fog  Heavy snow  Heavy precipitations  Wind > 20 kt
SIGMETs :     Misc.  Thunderstorms  Icing  Turbulence  Mountain Waves  Volcanic Ashes







- Airport Elevation : 106 ft
- IATA code : XDA
- Download approach charts


LFBY - Dax Seyresse

CURRENT METAR :
  • 251800Z AUTO 21006KT 7000 // FEW015 12/11 Q1009

EXPIRED METARs :
  • 251730Z AUTO 19006KT 9999 // NSC 12/11 Q1008
  • 251700Z AUTO 19005KT 9999 // FEW018 SCT041 11/10 Q1008
  • 251630Z AUTO 19006KT 9999 // SCT019/// BKN025/// BKN038/// ///TCU 11/10 Q1008
  • 251600Z AUTO 17004KT 9999 // FEW021 SCT039 11/09 Q1008
  • 251530Z AUTO 18004KT 150V210 9999 // FEW023/// BKN036/// OVC044/// ///TCU 11/09 Q1008

Expired Forecast.
No reported NOTAMs for that airfield.



MET'MAP, your aeronautical weather chart ! - Copyright ORBIFLY December 2007 - Disclaimer

ORBIFLY MET'MAP TEAM :

Programming & Development : Alexandra Zaïnal
Concept & Development : Baudouin d'Aumeries
Co-Development & Prog : Marc-Olivier Méhu
Technical & hardware support : Manuel Goepfert

Contact : metmap@orbifly.com




SOURCES & CREDITS :

   NOAA